createdAt,value
2023-03-28T00:02:25.726Z,3.07
2023-03-28T00:04:54.491Z,3.07
2023-03-28T00:07:22.843Z,2.90
2023-03-28T00:09:51.214Z,2.90
2023-03-28T00:12:18.592Z,3.23
2023-03-28T00:14:46.174Z,3.63
2023-03-28T00:17:13.588Z,3.43
2023-03-28T00:19:41.492Z,4.60
2023-03-28T00:22:11.297Z,3.60
2023-03-28T00:24:38.863Z,3.33
2023-03-28T00:27:07.093Z,3.20
2023-03-28T00:29:34.707Z,3.60
2023-03-28T00:32:02.833Z,3.47
2023-03-28T00:34:30.272Z,3.63
2023-03-28T00:36:58.416Z,3.80
2023-03-28T00:39:27.689Z,4.10
2023-03-28T00:41:55.714Z,3.53
2023-03-28T00:44:42.211Z,4.03
2023-03-28T00:47:12.742Z,4.20
2023-03-28T00:49:40.177Z,3.90
2023-03-28T00:52:08.310Z,3.60
2023-03-28T00:54:39.503Z,3.60
2023-03-28T00:57:08.888Z,3.60
2023-03-28T00:59:38.343Z,3.60
2023-03-28T01:02:06.199Z,3.23
2023-03-28T01:04:36.250Z,2.90
2023-03-28T01:07:04.619Z,3.20
2023-03-28T01:09:35.178Z,2.87
2023-03-28T01:12:03.977Z,2.87
2023-03-28T01:14:31.803Z,3.57
2023-03-28T01:17:01.440Z,2.90
2023-03-28T01:19:42.618Z,3.00
2023-03-28T01:22:21.801Z,2.80
2023-03-28T01:25:03.260Z,2.87
2023-03-28T01:27:33.816Z,2.70
2023-03-28T01:30:13.130Z,2.50
2023-03-28T01:33:13.087Z,2.90
2023-03-28T01:35:56.130Z,3.00
2023-03-28T01:38:28.158Z,2.43
2023-03-28T01:41:02.844Z,2.37
2023-03-28T01:43:41.842Z,2.10
2023-03-28T01:46:12.527Z,2.70
2023-03-28T01:48:46.314Z,3.03
2023-03-28T01:51:19.071Z,2.80
2023-03-28T01:53:50.652Z,2.77
2023-03-28T01:56:22.314Z,2.20
2023-03-28T01:58:54.331Z,2.50
2023-03-28T02:01:30.167Z,2.60
2023-03-28T02:04:01.564Z,2.50
2023-03-28T02:06:50.126Z,3.73
2023-03-28T02:09:24.819Z,2.50
2023-03-28T02:12:04.798Z,2.80
2023-03-28T02:14:49.929Z,2.83
2023-03-28T02:17:34.636Z,3.50
2023-03-28T02:20:11.676Z,3.17
2023-03-28T02:22:57.665Z,4.23
2023-03-28T02:25:50.073Z,2.90
2023-03-28T02:28:37.772Z,2.80
2023-03-28T02:31:11.308Z,3.20
2023-03-28T02:33:40.966Z,2.80
2023-03-28T02:36:24.740Z,2.90
2023-03-28T02:38:58.440Z,2.57
2023-03-28T02:41:32.693Z,3.00
2023-03-28T02:44:05.838Z,3.23
2023-03-28T02:46:37.286Z,2.73
2023-03-28T02:49:18.721Z,3.20
2023-03-28T02:51:50.622Z,3.20
2023-03-28T02:54:24.288Z,3.13
2023-03-28T02:57:18.197Z,3.73
2023-03-28T02:59:53.053Z,3.30
2023-03-28T03:02:21.420Z,4.00
2023-03-28T03:04:50.248Z,4.00
2023-03-28T03:07:19.073Z,4.00
2023-03-28T03:09:46.789Z,3.83
2023-03-28T03:12:15.609Z,4.07
2023-03-28T03:14:44.018Z,4.20
2023-03-28T03:17:40.673Z,4.50
2023-03-28T03:20:09.339Z,4.60
2023-03-28T03:22:39.271Z,4.30
2023-03-28T03:25:08.158Z,4.40
2023-03-28T03:27:49.818Z,4.87
2023-03-28T03:30:19.770Z,5.03
2023-03-28T03:33:17.038Z,5.20
2023-03-28T03:35:46.603Z,4.57
2023-03-28T03:38:14.818Z,5.20
2023-03-28T03:40:42.268Z,4.70
2023-03-28T03:43:11.872Z,4.50
2023-03-28T03:45:41.369Z,4.20
2023-03-28T03:48:09.780Z,4.23
2023-03-28T03:50:37.772Z,4.93
2023-03-28T03:53:12.028Z,4.10
2023-03-28T03:55:47.490Z,4.87
2023-03-28T03:58:16.348Z,5.07
2023-03-28T04:00:46.528Z,5.17
2023-03-28T04:03:29.181Z,6.13
2023-03-28T04:05:58.025Z,4.90
2023-03-28T04:08:25.813Z,5.17
2023-03-28T04:10:53.503Z,6.57
2023-03-28T04:13:22.680Z,4.80
2023-03-28T04:15:55.055Z,5.23
2023-03-28T04:18:34.963Z,4.80
2023-03-28T04:21:03.404Z,4.43
2023-03-28T04:23:44.348Z,5.67
2023-03-28T04:26:26.883Z,4.67
2023-03-28T04:29:04.020Z,4.40
2023-03-28T04:31:35.582Z,5.57
2023-03-28T04:34:33.832Z,4.80
2023-03-28T04:37:08.974Z,4.97
2023-03-28T04:39:47.548Z,5.30
2023-03-28T04:42:36.413Z,4.93
2023-03-28T04:45:17.210Z,5.30
2023-03-28T04:47:46.116Z,5.53
2023-03-28T04:50:18.673Z,6.30
2023-03-28T04:52:46.291Z,5.23
2023-03-28T04:55:16.980Z,5.63
2023-03-28T04:57:45.941Z,5.13
2023-03-28T05:00:16.804Z,5.50
2023-03-28T05:03:14.642Z,5.30
2023-03-28T05:05:52.776Z,5.30
2023-03-28T05:08:20.944Z,5.73
2023-03-28T05:10:48.492Z,5.50
2023-03-28T05:13:16.694Z,5.43
2023-03-28T05:15:52.492Z,5.17
2023-03-28T05:18:48.986Z,5.97
2023-03-28T05:21:20.371Z,5.53
2023-03-28T05:23:52.457Z,5.40
2023-03-28T05:26:22.834Z,5.50
2023-03-28T05:28:50.260Z,7.33
2023-03-28T05:31:19.309Z,5.83
2023-03-28T05:33:51.404Z,6.53
2023-03-28T05:36:30.074Z,5.67
2023-03-28T05:38:58.110Z,5.73
2023-03-28T05:41:26.564Z,5.83
2023-03-28T05:43:53.958Z,5.33
2023-03-28T05:46:37.888Z,6.37
2023-03-28T05:49:05.260Z,5.63
2023-03-28T05:51:32.706Z,6.43
2023-03-28T05:54:00.206Z,5.73
2023-03-28T05:56:28.649Z,6.70
2023-03-28T05:58:56.095Z,6.50
2023-03-28T06:01:27.604Z,6.17
2023-03-28T06:03:58.515Z,6.70
2023-03-28T06:06:25.965Z,6.47
2023-03-28T06:08:53.622Z,5.80
2023-03-28T06:11:21.217Z,7.17
2023-03-28T06:14:04.745Z,6.50
2023-03-28T06:16:32.216Z,6.77
2023-03-28T06:19:16.461Z,6.63
2023-03-28T06:21:49.186Z,6.87
2023-03-28T06:24:16.623Z,7.63
2023-03-28T06:26:44.035Z,8.10
2023-03-28T06:29:16.086Z,8.43
2023-03-28T06:31:44.899Z,7.17
2023-03-28T06:34:14.564Z,8.13
2023-03-28T06:36:51.306Z,7.47
2023-03-28T06:39:18.749Z,7.43
2023-03-28T06:41:46.418Z,6.47
2023-03-28T06:44:13.801Z,7.37
2023-03-28T06:47:13.557Z,7.43
2023-03-28T06:49:43.110Z,6.80
2023-03-28T06:52:36.817Z,6.80
2023-03-28T06:55:07.148Z,7.27
2023-03-28T06:57:34.630Z,6.73
2023-03-28T07:00:21.709Z,6.60
2023-03-28T07:03:07.848Z,7.10
2023-03-28T07:05:40.149Z,11.30
2023-03-28T07:08:08.466Z,12.63
2023-03-28T07:10:36.086Z,15.23
2023-03-28T07:13:03.507Z,13.73
2023-03-28T07:15:31.004Z,13.53
2023-03-28T07:17:58.437Z,11.77
2023-03-28T07:20:26.063Z,11.20
2023-03-28T07:22:55.435Z,10.87
2023-03-28T07:25:23.132Z,9.77
2023-03-28T07:27:50.739Z,9.73
2023-03-28T07:30:18.238Z,8.00
2023-03-28T07:35:16.469Z,7.10
2023-03-28T07:37:48.361Z,9.40
2023-03-28T07:40:28.592Z,6.37
2023-03-28T07:42:57.554Z,8.10
2023-03-28T07:45:24.923Z,7.60
2023-03-28T07:47:53.413Z,9.03
2023-03-28T07:50:23.559Z,7.20
2023-03-28T07:52:57.423Z,7.50
2023-03-28T07:55:26.353Z,7.70
2023-03-28T07:57:55.346Z,6.40
2023-03-28T08:00:27.455Z,6.50
2023-03-28T08:03:18.707Z,6.80
2023-03-28T08:05:51.775Z,5.90
2023-03-28T08:08:21.428Z,5.67
2023-03-28T08:11:00.902Z,5.77
2023-03-28T08:13:30.440Z,4.40
2023-03-28T08:16:04.092Z,4.30
2023-03-28T08:18:31.572Z,6.37
2023-03-28T08:21:00.925Z,3.83
2023-03-28T08:23:31.413Z,3.93
2023-03-28T08:26:19.847Z,4.07
2023-03-28T08:28:54.950Z,3.83
2023-03-28T08:31:23.530Z,3.80
2023-03-28T08:33:54.055Z,4.03
2023-03-28T08:36:26.955Z,3.40
2023-03-28T08:39:00.367Z,3.03
2023-03-28T08:41:46.803Z,6.03
2023-03-28T08:44:25.025Z,3.20
2023-03-28T08:46:55.641Z,2.70
2023-03-28T08:49:23.539Z,3.07
2023-03-28T08:51:53.107Z,2.70
2023-03-28T08:54:23.335Z,2.30
2023-03-28T08:56:52.514Z,2.53
2023-03-28T08:59:24.310Z,2.73
2023-03-28T09:01:51.755Z,2.77
2023-03-28T09:04:22.691Z,2.60
2023-03-28T09:06:54.668Z,3.47
2023-03-28T09:09:34.465Z,2.90
2023-03-28T09:12:31.838Z,3.87
2023-03-28T09:15:27.045Z,3.77
2023-03-28T09:18:03.717Z,3.97
2023-03-28T09:20:34.925Z,3.87
2023-03-28T09:23:15.673Z,4.00
2023-03-28T09:26:10.741Z,3.47
2023-03-28T09:28:41.826Z,3.20
2023-03-28T09:31:11.352Z,3.60
2023-03-28T09:33:42.939Z,3.50
2023-03-28T09:36:14.161Z,4.30
2023-03-28T09:38:45.545Z,4.30
2023-03-28T09:41:15.586Z,4.13
2023-03-28T09:44:19.859Z,6.57
2023-03-28T09:47:13.293Z,5.00
2023-03-28T09:49:49.517Z,4.40
2023-03-28T09:52:19.463Z,4.50
2023-03-28T09:54:47.170Z,4.00
2023-03-28T09:57:14.972Z,4.03
2023-03-28T09:59:48.263Z,3.73
2023-03-28T10:02:26.096Z,4.30
2023-03-28T10:04:55.799Z,4.27
2023-03-28T10:07:43.348Z,5.00
2023-03-28T10:10:20.211Z,4.50
2023-03-28T10:12:49.991Z,5.13
2023-03-28T10:15:30.762Z,5.17
2023-03-28T10:18:31.097Z,5.27
2023-03-28T10:21:22.495Z,7.63
2023-03-28T10:24:00.833Z,3.73
2023-03-28T10:26:28.448Z,4.00
2023-03-28T10:31:30.472Z,3.70
2023-03-28T10:34:23.350Z,3.57
2023-03-28T10:37:03.664Z,3.43
2023-03-28T10:39:58.576Z,4.80
2023-03-28T10:42:46.669Z,3.90
2023-03-28T10:45:37.590Z,3.60
2023-03-28T10:48:09.562Z,3.50
2023-03-28T10:50:38.347Z,4.10
2023-03-28T10:53:16.291Z,3.50
2023-03-28T10:55:46.214Z,3.70
2023-03-28T10:58:26.606Z,3.60
2023-03-28T11:01:01.197Z,3.33
2023-03-28T11:03:43.853Z,4.07
2023-03-28T11:06:15.540Z,3.60
2023-03-28T11:08:53.392Z,3.43
2023-03-28T11:11:36.010Z,4.60
2023-03-28T11:14:09.038Z,3.63
2023-03-28T11:16:41.950Z,3.60
2023-03-28T11:19:40.403Z,3.67
2023-03-28T11:22:12.826Z,3.23
2023-03-28T11:24:48.324Z,3.20
2023-03-28T11:27:26.906Z,3.17
2023-03-28T11:30:10.856Z,3.10
2023-03-28T11:32:47.197Z,3.23
2023-03-28T11:35:17.239Z,2.80
2023-03-28T11:37:52.214Z,3.17
2023-03-28T11:40:24.517Z,3.13
2023-03-28T11:43:01.514Z,3.50
2023-03-28T11:45:46.848Z,3.57
2023-03-28T11:48:20.978Z,5.03
2023-03-28T11:50:54.482Z,3.13
2023-03-28T11:53:40.048Z,3.20
2023-03-28T11:56:10.685Z,3.43
2023-03-28T11:59:00.636Z,2.80
2023-03-28T12:01:31.160Z,3.83
2023-03-28T12:04:03.500Z,3.10
2023-03-28T12:06:33.665Z,3.27
2023-03-28T12:09:04.068Z,3.00
2023-03-28T12:11:41.063Z,3.60
2023-03-28T12:14:18.284Z,3.47
2023-03-28T12:16:52.059Z,3.40
2023-03-28T12:19:26.892Z,3.23
2023-03-28T12:22:01.515Z,3.40
2023-03-28T12:24:43.120Z,3.30
2023-03-28T12:27:19.863Z,3.40
2023-03-28T12:29:48.896Z,3.40
2023-03-28T12:32:26.659Z,3.23
2023-03-28T12:35:01.862Z,3.30
2023-03-28T12:37:55.313Z,3.23
2023-03-28T12:40:25.596Z,3.20
2023-03-28T12:42:56.382Z,3.43
2023-03-28T12:45:26.645Z,3.10
2023-03-28T12:47:56.391Z,3.60
2023-03-28T12:50:27.187Z,3.63
2023-03-28T12:52:57.062Z,3.50
2023-03-28T12:55:47.507Z,3.37
2023-03-28T12:58:23.398Z,3.00
2023-03-28T13:01:08.542Z,3.57
2023-03-28T13:03:41.809Z,3.30
2023-03-28T13:06:12.903Z,3.00
2023-03-28T13:08:47.651Z,3.70
2023-03-28T13:11:18.110Z,3.53
2023-03-28T13:13:53.356Z,3.10
2023-03-28T13:16:24.433Z,3.80
2023-03-28T13:19:05.719Z,3.47
2023-03-28T13:21:42.456Z,4.20
2023-03-28T13:24:27.454Z,3.90
2023-03-28T13:26:55.295Z,4.00
2023-03-28T13:29:24.509Z,3.90
2023-03-28T13:31:52.633Z,3.60
2023-03-28T13:34:22.897Z,3.60
2023-03-28T13:36:50.888Z,3.93
2023-03-28T13:39:23.112Z,4.00
2023-03-28T13:42:02.489Z,4.20
2023-03-28T13:44:37.222Z,4.23
2023-03-28T13:47:05.625Z,5.60
2023-03-28T13:49:37.160Z,5.03
2023-03-28T13:52:06.699Z,3.83
2023-03-28T13:54:34.454Z,3.60
2023-03-28T13:57:03.157Z,4.10
2023-03-28T13:59:34.958Z,4.17
2023-03-28T14:02:03.287Z,3.97
2023-03-28T14:04:31.942Z,3.60
2023-03-28T14:06:59.803Z,3.83
2023-03-28T14:09:32.242Z,3.97
2023-03-28T14:12:01.023Z,5.37
2023-03-28T14:14:30.919Z,4.67
2023-03-28T14:17:01.688Z,4.23
2023-03-28T14:19:34.612Z,4.30
2023-03-28T14:22:02.062Z,3.90
2023-03-28T14:24:29.461Z,3.90
2023-03-28T14:27:07.147Z,4.23
2023-03-28T14:29:34.485Z,4.27
2023-03-28T14:32:07.565Z,4.07
2023-03-28T14:34:38.574Z,3.73
2023-03-28T14:37:07.489Z,4.13
2023-03-28T14:39:36.473Z,4.03
2023-03-28T14:42:04.888Z,3.77
2023-03-28T14:44:36.307Z,3.70
2023-03-28T14:47:05.448Z,4.10
2023-03-28T14:49:33.089Z,4.00
2023-03-28T14:52:03.441Z,3.80
2023-03-28T14:54:32.629Z,4.17
2023-03-28T14:57:01.002Z,3.93
2023-03-28T14:59:33.414Z,4.10
2023-03-28T15:02:02.120Z,3.97
2023-03-28T15:04:32.050Z,3.83
2023-03-28T15:06:59.649Z,4.37
2023-03-28T15:09:29.649Z,4.37
2023-03-28T15:11:58.126Z,4.43
2023-03-28T15:14:30.289Z,4.20
2023-03-28T15:16:57.896Z,3.87
2023-03-28T15:19:27.124Z,3.97
2023-03-28T15:21:57.303Z,4.67
2023-03-28T15:24:25.912Z,4.07
2023-03-28T15:26:54.758Z,4.07
2023-03-28T15:29:25.062Z,3.97
2023-03-28T15:31:53.139Z,4.10
2023-03-28T15:34:21.672Z,4.30
2023-03-28T15:36:49.689Z,4.30
2023-03-28T15:39:22.925Z,4.17
2023-03-28T15:41:53.368Z,3.97
2023-03-28T15:44:27.648Z,4.53
2023-03-28T15:46:56.031Z,3.83
2023-03-28T15:49:23.483Z,4.10
2023-03-28T15:51:52.559Z,3.57
2023-03-28T15:54:30.754Z,3.93
2023-03-28T15:57:00.374Z,3.93
2023-03-28T15:59:30.329Z,3.97
2023-03-28T16:02:16.408Z,3.97
2023-03-28T16:04:57.357Z,4.00
2023-03-28T16:07:24.796Z,4.47
2023-03-28T16:09:53.688Z,4.40
2023-03-28T16:12:21.072Z,4.40
2023-03-28T16:15:08.134Z,4.13
2023-03-28T16:17:45.210Z,4.67
2023-03-28T16:20:27.053Z,4.33
2023-03-28T16:22:57.257Z,4.27
2023-03-28T16:25:27.731Z,4.37
2023-03-28T16:27:55.228Z,4.07
2023-03-28T16:30:26.366Z,4.93
2023-03-28T16:32:54.028Z,4.87
2023-03-28T16:35:22.528Z,4.20
2023-03-28T16:37:49.947Z,4.37
2023-03-28T16:40:17.478Z,4.10
2023-03-28T16:42:46.211Z,4.60
2023-03-28T16:45:14.150Z,4.03
2023-03-28T16:47:41.997Z,4.70
2023-03-28T16:50:10.348Z,3.93
2023-03-28T16:52:38.890Z,4.43
2023-03-28T16:55:06.787Z,4.30
2023-03-28T16:57:34.235Z,4.63
2023-03-28T17:00:04.527Z,4.80
2023-03-28T17:02:32.080Z,4.73
2023-03-28T17:04:59.539Z,4.40
2023-03-28T17:07:27.639Z,4.70
2023-03-28T17:09:55.012Z,4.70
2023-03-28T17:12:23.841Z,5.07
2023-03-28T17:14:51.875Z,4.73
2023-03-28T17:17:20.725Z,4.65
2023-03-28T17:19:48.197Z,4.43
2023-03-28T17:22:15.669Z,4.30
2023-03-28T17:24:44.006Z,4.50
2023-03-28T17:27:11.427Z,4.27
2023-03-28T17:29:38.834Z,4.93
2023-03-28T17:32:07.049Z,4.30
2023-03-28T17:34:36.536Z,4.47
2023-03-28T17:37:04.108Z,3.90
2023-03-28T17:39:31.737Z,4.33
2023-03-28T17:41:59.144Z,5.20
2023-03-28T17:44:26.602Z,5.10
2023-03-28T17:46:54.317Z,5.80
2023-03-28T17:49:22.439Z,5.77
2023-03-28T17:51:51.875Z,4.93
2023-03-28T17:54:19.579Z,4.77
2023-03-28T17:56:47.350Z,5.67
2023-03-28T17:59:14.784Z,5.20
2023-03-28T18:01:42.332Z,5.30
2023-03-28T18:04:09.804Z,4.80
2023-03-28T18:06:57.124Z,4.87
2023-03-28T18:09:24.651Z,4.50
2023-03-28T18:11:52.233Z,4.90
2023-03-28T18:14:19.587Z,4.60
2023-03-28T18:16:47.142Z,4.20
2023-03-28T18:19:18.216Z,4.53
2023-03-28T18:21:46.525Z,4.00
2023-03-28T18:24:15.282Z,4.73
2023-03-28T18:26:43.013Z,4.47
2023-03-28T18:29:11.435Z,5.40
2023-03-28T18:31:38.982Z,5.33
2023-03-28T18:34:06.682Z,4.83
2023-03-28T18:36:36.760Z,4.80
2023-03-28T18:39:05.952Z,6.80
2023-03-28T18:41:34.747Z,7.53
2023-03-28T18:44:02.200Z,7.17
2023-03-28T18:46:30.170Z,6.80
2023-03-28T18:48:59.460Z,5.93
2023-03-28T18:51:27.550Z,6.10
2023-03-28T18:53:55.128Z,5.53
2023-03-28T18:56:22.734Z,5.77
2023-03-28T18:58:51.488Z,4.70
2023-03-28T19:01:20.429Z,5.13
2023-03-28T19:03:49.669Z,5.53
2023-03-28T19:06:17.402Z,4.83
2023-03-28T19:08:44.844Z,4.80
2023-03-28T19:11:14.067Z,4.60
2023-03-28T19:13:41.579Z,4.50
2023-03-28T19:16:11.417Z,4.97
2023-03-28T19:18:39.536Z,5.07
2023-03-28T19:21:07.641Z,5.00
2023-03-28T19:23:36.688Z,5.20
2023-03-28T19:26:05.468Z,4.93
2023-03-28T19:28:32.898Z,4.73
2023-03-28T19:31:02.090Z,5.37
2023-03-28T19:33:31.187Z,5.00
2023-03-28T19:35:58.670Z,4.83
2023-03-28T19:38:27.203Z,4.80
2023-03-28T19:40:57.949Z,4.90
2023-03-28T19:43:25.333Z,4.70
2023-03-28T19:45:52.787Z,4.37
2023-03-28T19:48:22.172Z,4.63
2023-03-28T19:50:50.913Z,5.30
2023-03-28T19:53:18.304Z,4.97
2023-03-28T19:55:51.078Z,5.80
2023-03-28T19:58:18.491Z,4.10
2023-03-28T20:00:45.965Z,4.73
2023-03-28T20:03:13.413Z,4.97
2023-03-28T20:05:41.437Z,4.80
2023-03-28T20:08:10.224Z,4.73
2023-03-28T20:10:39.814Z,5.20
2023-03-28T20:13:07.207Z,4.90
2023-03-28T20:15:34.648Z,6.43
2023-03-28T20:18:02.361Z,9.00
2023-03-28T20:20:29.745Z,9.33
2023-03-28T20:22:58.037Z,6.07
2023-03-28T20:25:27.000Z,6.10
2023-03-28T20:27:54.438Z,6.60
2023-03-28T20:30:22.629Z,5.17
2023-03-28T20:32:50.410Z,5.53
2023-03-28T20:35:18.047Z,4.93
2023-03-28T20:37:45.525Z,4.33
2023-03-28T20:40:13.455Z,5.00
2023-03-28T20:42:42.235Z,4.60
2023-03-28T20:45:14.063Z,4.73
2023-03-28T20:47:41.470Z,5.23
2023-03-28T20:50:09.556Z,6.37
2023-03-28T20:52:37.330Z,5.73
2023-03-28T20:55:05.380Z,5.77
2023-03-28T20:57:35.806Z,5.97
2023-03-28T21:00:07.089Z,5.40
2023-03-28T21:02:36.167Z,5.63
2023-03-28T21:05:04.568Z,5.53
2023-03-28T21:07:32.001Z,5.57
2023-03-28T21:09:59.850Z,5.87
2023-03-28T21:12:27.401Z,6.00
2023-03-28T21:14:55.400Z,6.07
2023-03-28T21:17:26.121Z,6.67
2023-03-28T21:19:53.744Z,5.30
2023-03-28T21:22:21.548Z,5.80
2023-03-28T21:24:49.174Z,6.20
2023-03-28T21:27:17.145Z,6.37
2023-03-28T21:29:44.585Z,5.80
2023-03-28T21:32:13.475Z,5.20
2023-03-28T21:34:43.079Z,8.37
2023-03-28T21:37:10.537Z,5.70
2023-03-28T21:39:38.745Z,5.30
2023-03-28T21:42:06.525Z,5.60
2023-03-28T21:44:34.075Z,5.40
2023-03-28T21:47:01.666Z,5.30
2023-03-28T21:49:30.556Z,5.67
2023-03-28T21:51:59.281Z,5.30
2023-03-28T21:54:26.656Z,5.73
2023-03-28T21:56:54.069Z,5.40
2023-03-28T21:59:21.489Z,5.70
2023-03-28T22:01:48.892Z,5.30
2023-03-28T22:04:16.452Z,5.07
2023-03-28T22:06:43.837Z,5.20
2023-03-28T22:09:12.577Z,4.80
2023-03-28T22:11:40.114Z,5.00
2023-03-28T22:14:07.581Z,4.57
2023-03-28T22:16:36.170Z,4.40
2023-03-28T22:19:04.464Z,5.20
2023-03-28T22:21:31.887Z,3.50
2023-03-28T22:23:59.927Z,2.70
2023-03-28T22:26:28.669Z,3.03
2023-03-28T22:28:57.551Z,2.90
2023-03-28T22:31:25.146Z,2.10
2023-03-28T22:33:52.701Z,2.30
2023-03-28T22:36:20.297Z,2.30
2023-03-28T22:38:47.751Z,2.17
2023-03-28T22:41:15.241Z,3.07
2023-03-28T22:43:44.958Z,2.03
2023-03-28T22:46:16.461Z,1.80
2023-03-28T22:48:44.099Z,2.13
2023-03-28T22:51:12.897Z,1.90
2023-03-28T22:53:40.546Z,2.30
2023-03-28T22:56:08.476Z,2.00
2023-03-28T22:58:35.846Z,1.87
2023-03-28T23:01:04.675Z,1.63
2023-03-28T23:03:32.361Z,1.63
2023-03-28T23:06:01.996Z,1.50
2023-03-28T23:08:29.395Z,1.47
2023-03-28T23:10:56.772Z,1.70
2023-03-28T23:13:24.142Z,1.40
2023-03-28T23:15:51.562Z,1.43
2023-03-28T23:18:20.559Z,1.60
2023-03-28T23:20:49.620Z,1.53
2023-03-28T23:23:17.050Z,1.50
2023-03-28T23:25:46.393Z,2.53
2023-03-28T23:28:13.856Z,1.50
2023-03-28T23:30:41.330Z,1.70
2023-03-28T23:33:08.883Z,1.33
2023-03-28T23:35:37.729Z,1.50
2023-03-28T23:38:05.233Z,1.37
2023-03-28T23:40:33.523Z,1.37
2023-03-28T23:43:00.919Z,1.43
2023-03-28T23:45:28.334Z,1.40
2023-03-28T23:47:55.879Z,2.17
2023-03-28T23:50:23.301Z,1.60
2023-03-28T23:52:52.031Z,1.63
2023-03-28T23:55:20.045Z,1.50
2023-03-28T23:57:47.660Z,3.10
